Time;durP1;ratioP1;P1;durP2;ratioP2;P2;SDS_P1;SDS_P2;PMS_P1;PMS_P2;Temp;Humidity;BMP_temperature;BMP_pressure;BME280_temperature;BME280_humidity;BME280_pressure;Samples;Min_cycle;Max_cycle;Signal;HPM_P1;HPM_P2
2023/12/14 00:03:44;;;;;;;17.13;7.07;;;;;7.20;95041.00;;;;8368524;28;20220;-73
2023/12/14 00:07:48;;;;;;;19.10;7.50;;;;;7.20;95047.00;;;;8368064;28;20246;-73
2023/12/14 00:11:51;;;;;;;18.87;7.40;;;;;7.20;95053.00;;;;8368535;28;20225;-73
2023/12/14 00:15:55;;;;;;;18.37;7.63;;;;;7.20;95063.00;;;;8368214;28;20534;-73
2023/12/14 00:19:58;;;;;;;21.77;8.00;;;;;7.20;95058.00;;;;8367912;28;20189;-72
2023/12/14 00:24:02;;;;;;;16.70;7.22;;;;;7.20;95066.00;;;;8367958;28;20197;-72
2023/12/14 00:28:07;;;;;;;15.67;7.10;;;;;7.10;95074.00;;;;8367177;28;20325;-72
2023/12/14 00:32:10;;;;;;;16.05;7.00;;;;;7.10;95078.00;;;;8367103;28;20732;-72
2023/12/14 00:36:19;;;;;;;21.43;7.20;;;;;7.20;95088.00;;;;8367416;28;20196;-72
2023/12/14 00:40:24;;;;;;;20.37;7.47;;;;;7.10;95090.00;;;;8367032;28;20182;-71
2023/12/14 00:44:28;;;;;;;16.47;7.03;;;;;7.10;95094.00;;;;8367242;28;20279;-71
2023/12/14 00:48:31;;;;;;;17.60;7.30;;;;;7.10;95103.00;;;;8366879;28;20196;-71
2023/12/14 00:52:34;;;;;;;21.45;7.32;;;;;7.10;95110.00;;;;8366470;28;20227;-71
2023/12/14 00:56:39;;;;;;;19.47;6.77;;;;;7.10;95125.00;;;;8367024;28;20192;-71
2023/12/14 01:00:43;;;;;;;17.47;7.10;;;;;7.10;95120.00;;;;8366639;28;20721;-71
2023/12/14 01:04:46;;;;;;;16.47;6.43;;;;;7.10;95122.00;;;;8367451;28;20232;-71
2023/12/14 01:08:49;;;;;;;18.13;6.73;;;;;7.10;95127.00;;;;8366164;28;20188;-71
2023/12/14 01:12:53;;;;;;;20.90;6.50;;;;;7.10;95133.00;;;;8367040;28;20217;-71
2023/12/14 01:16:56;;;;;;;13.47;5.10;;;;;7.10;95139.00;;;;8365880;28;20215;-71
2023/12/14 01:21:00;;;;;;;16.27;5.73;;;;;7.10;95140.00;;;;8366191;28;20197;-71
2023/12/14 01:25:27;;;;;;;13.50;5.20;;;;;7.10;95150.00;;;;8364297;28;20632;-71
2023/12/14 01:29:35;;;;;;;13.55;5.38;;;;;7.10;95150.00;;;;8367098;28;20573;-71
2023/12/14 01:33:38;;;;;;;14.37;5.40;;;;;7.10;95155.00;;;;8365404;28;20224;-71
2023/12/14 01:37:41;;;;;;;17.77;5.57;;;;;7.10;95167.00;;;;8365821;28;20250;-72
2023/12/14 01:41:44;;;;;;;19.23;5.90;;;;;7.20;95169.00;;;;8364099;28;20193;-72
2023/12/14 01:45:49;;;;;;;21.50;6.17;;;;;7.20;95175.00;;;;8365152;28;20725;-72
2023/12/14 01:49:52;;;;;;;17.40;6.60;;;;;7.20;95182.00;;;;8364129;28;20590;-72
2023/12/14 01:53:55;;;;;;;22.07;6.83;;;;;7.20;95192.00;;;;8364332;28;20733;-72
2023/12/14 01:58:01;;;;;;;13.90;5.43;;;;;7.20;95210.00;;;;8364983;28;20234;-73
2023/12/14 02:02:06;;;;;;;16.73;6.00;;;;;7.30;95203.00;;;;8365254;28;20197;-73
2023/12/14 02:06:10;;;;;;;15.93;5.67;;;;;7.20;95211.00;;;;8365715;28;20614;-73
2023/12/14 02:10:13;;;;;;;14.80;5.63;;;;;7.20;95209.00;;;;8364291;28;20201;-73
2023/12/14 02:14:16;;;;;;;20.77;5.57;;;;;7.20;95210.00;;;;8363941;28;20260;-73
2023/12/14 02:18:21;;;;;;;16.37;5.57;;;;;7.30;95213.00;;;;8365157;28;20219;-73
2023/12/14 02:22:24;;;;;;;15.67;5.90;;;;;7.30;95219.00;;;;8364216;28;20216;-74
2023/12/14 02:26:38;;;;;;;14.83;5.73;;;;;7.30;95220.00;;;;8365210;28;20197;-74
2023/12/14 02:30:41;;;;;;;13.77;5.73;;;;;7.30;95231.00;;;;8364223;28;20231;-74
2023/12/14 02:34:44;;;;;;;18.57;6.27;;;;;7.30;95231.00;;;;8364401;28;20703;-74
2023/12/14 02:38:48;;;;;;;16.77;6.10;;;;;7.20;95237.00;;;;8365718;28;20534;-74
2023/12/14 02:42:59;;;;;;;16.37;7.00;;;;;7.20;95243.00;;;;8363194;28;20276;-74
2023/12/14 02:47:02;;;;;;;22.43;6.80;;;;;7.10;95248.00;;;;8365051;28;20177;-74
2023/12/14 02:51:06;;;;;;;22.83;7.00;;;;;7.10;95262.00;;;;8363523;28;20245;-74
2023/12/14 02:55:09;;;;;;;20.87;7.17;;;;;7.20;95267.00;;;;8364829;28;20284;-74
2023/12/14 02:59:14;;;;;;;26.07;6.63;;;;;7.10;95270.00;;;;8369896;28;20284;-75
2023/12/14 03:03:17;;;;;;;23.27;7.00;;;;;7.10;95268.00;;;;8334237;22;20502;-75
2023/12/14 03:07:20;;;;;;;24.03;7.27;;;;;7.10;95276.00;;;;8278478;28;20205;-75
2023/12/14 03:11:24;;;;;;;26.20;7.43;;;;;7.10;95279.00;;;;8275462;28;20318;-75
2023/12/14 03:15:29;;;;;;;28.37;7.63;;;;;7.10;95280.00;;;;8278144;28;20285;-75
2023/12/14 03:19:32;;;;;;;29.93;7.90;;;;;7.20;95294.00;;;;8276763;28;20904;-76
2023/12/14 03:23:35;;;;;;;28.57;8.23;;;;;7.10;95288.00;;;;8288808;28;20202;-76
2023/12/14 03:27:38;;;;;;;25.53;7.90;;;;;7.10;95288.00;;;;8287417;28;20203;-76
2023/12/14 03:31:42;;;;;;;25.37;7.80;;;;;7.10;95294.00;;;;8293631;28;20588;-76
2023/12/14 03:35:46;;;;;;;25.77;7.73;;;;;7.10;95308.00;;;;8282259;28;20214;-76
2023/12/14 03:39:49;;;;;;;19.97;7.13;;;;;7.00;95308.00;;;;8278772;28;20304;-76
2023/12/14 03:43:52;;;;;;;24.70;8.53;;;;;7.00;95313.00;;;;8284350;28;20277;-76
2023/12/14 03:47:57;;;;;;;35.50;8.60;;;;;7.00;95315.00;;;;8272144;28;20206;-76
2023/12/14 03:52:00;;;;;;;29.13;9.20;;;;;7.00;95322.00;;;;8285331;28;20705;-76
2023/12/14 03:56:05;;;;;;;25.83;9.23;;;;;6.90;95327.00;;;;8279396;28;20210;-76
2023/12/14 04:00:11;;;;;;;35.93;10.00;;;;;6.90;95337.00;;;;8282809;28;20256;-76
2023/12/14 04:04:15;;;;;;;38.10;10.50;;;;;6.90;95329.00;;;;8274464;28;20253;-76
2023/12/14 04:08:19;;;;;;;49.13;11.27;;;;;6.90;95342.00;;;;8283106;28;20207;-76
2023/12/14 04:12:22;;;;;;;39.47;11.27;;;;;6.90;95349.00;;;;8280523;28;20878;-76
2023/12/14 04:16:25;;;;;;;37.77;11.97;;;;;6.90;95360.00;;;;8277615;28;20210;-76
2023/12/14 04:20:29;;;;;;;37.03;9.93;;;;;6.90;95369.00;;;;8282055;28;20198;-77
2023/12/14 04:24:32;;;;;;;46.00;11.73;;;;;6.90;95373.00;;;;8286067;28;20285;-76
2023/12/14 04:28:35;;;;;;;41.80;11.40;;;;;6.90;95378.00;;;;8282763;28;20198;-77
2023/12/14 04:32:39;;;;;;;49.77;11.53;;;;;6.90;95375.00;;;;8289222;28;20233;-77
2023/12/14 04:36:43;;;;;;;46.73;10.57;;;;;6.90;95385.00;;;;8279743;28;20592;-76
2023/12/14 04:40:47;;;;;;;39.73;10.73;;;;;6.90;95393.00;;;;8287588;28;20222;-76
2023/12/14 04:44:50;;;;;;;45.93;11.83;;;;;6.90;95401.00;;;;8288568;28;20209;-77
2023/12/14 04:48:53;;;;;;;45.30;11.97;;;;;6.90;95401.00;;;;8283017;28;20209;-76
2023/12/14 04:52:57;;;;;;;46.07;12.50;;;;;6.90;95420.00;;;;8277501;28;20245;-77
2023/12/14 04:57:01;;;;;;;42.27;12.00;;;;;7.00;95426.00;;;;8273376;28;20206;-76
2023/12/14 05:01:04;;;;;;;56.10;13.00;;;;;7.00;95428.00;;;;8272359;28;20233;-76
2023/12/14 05:05:07;;;;;;;62.83;13.53;;;;;7.00;95431.00;;;;8279537;28;20198;-76
2023/12/14 05:09:12;;;;;;;55.27;15.20;;;;;7.00;95433.00;;;;8279654;28;20209;-77
2023/12/14 05:13:15;;;;;;;59.40;14.07;;;;;7.00;95431.00;;;;8272942;28;20241;-76
2023/12/14 05:17:18;;;;;;;52.03;13.53;;;;;7.00;95444.00;;;;8276941;28;20281;-76
2023/12/14 05:21:22;;;;;;;66.67;15.30;;;;;7.10;95446.00;;;;8265771;28;20542;-76
2023/12/14 05:25:26;;;;;;;63.83;15.63;;;;;7.10;95461.00;;;;8281667;28;20285;-75
2023/12/14 05:29:30;;;;;;;80.67;16.10;;;;;7.10;95465.00;;;;8275445;28;20197;-76
2023/12/14 05:33:37;;;;;;;78.67;16.83;;;;;7.10;95481.00;;;;8281649;28;20287;-76
2023/12/14 05:37:41;;;;;;;90.22;16.98;;;;;7.10;95492.00;;;;8268121;28;20206;-76
2023/12/14 05:41:46;;;;;;;78.90;16.13;;;;;7.10;95496.00;;;;8270109;28;20603;-76
2023/12/14 05:45:49;;;;;;;83.97;16.73;;;;;7.10;95502.00;;;;8285517;28;20204;-75
2023/12/14 05:49:52;;;;;;;63.10;14.93;;;;;7.10;95507.00;;;;8277605;28;20820;-76
2023/12/14 05:53:55;;;;;;;52.27;13.53;;;;;7.10;95520.00;;;;8273513;28;20224;-76
2023/12/14 05:58:00;;;;;;;52.77;12.63;;;;;7.10;95514.00;;;;8268280;28;20297;-76
2023/12/14 06:02:03;;;;;;;54.97;13.17;;;;;7.10;95527.00;;;;8271325;28;20221;-76
2023/12/14 06:06:07;;;;;;;52.63;13.10;;;;;7.00;95532.00;;;;8278774;28;20955;-77
2023/12/14 06:10:12;;;;;;;62.77;14.57;;;;;7.00;95542.00;;;;8281883;28;20269;-76
2023/12/14 06:14:16;;;;;;;55.77;13.20;;;;;6.90;95551.00;;;;8274590;28;20264;-77
2023/12/14 06:18:19;;;;;;;64.63;15.00;;;;;6.90;95563.00;;;;8281200;28;20198;-77
2023/12/14 06:22:23;;;;;;;57.43;13.60;;;;;7.00;95573.00;;;;8286254;28;20233;-77
2023/12/14 06:26:26;;;;;;;58.90;14.00;;;;;7.00;95569.00;;;;8275466;28;20201;-77
2023/12/14 06:30:30;;;;;;;58.57;13.07;;;;;7.00;95582.00;;;;8250712;28;20262;-77
2023/12/14 06:34:34;;;;;;;68.77;14.60;;;;;7.10;95584.00;;;;8273579;28;20703;-77
2023/12/14 06:38:40;;;;;;;54.97;13.13;;;;;7.10;95584.00;;;;8274859;28;20221;-76
2023/12/14 06:42:43;;;;;;;55.03;13.17;;;;;7.10;95595.00;;;;8276643;28;20296;-77
2023/12/14 06:46:48;;;;;;;55.43;13.43;;;;;7.10;95605.00;;;;8279399;28;20229;-77
2023/12/14 06:50:51;;;;;;;68.33;15.10;;;;;7.10;95613.00;;;;8274669;28;20198;-77
2023/12/14 06:54:54;;;;;;;60.03;14.40;;;;;7.20;95626.00;;;;8276802;28;20919;-77
2023/12/14 06:58:57;;;;;;;64.00;14.03;;;;;7.20;95635.00;;;;8273545;28;20766;-77
2023/12/14 07:03:01;;;;;;;70.60;15.60;;;;;7.20;95645.00;;;;8278580;28;20240;-77
2023/12/14 07:07:05;;;;;;;58.97;14.53;;;;;7.20;95653.00;;;;8276297;28;20199;-77
2023/12/14 07:11:08;;;;;;;68.03;14.87;;;;;7.30;95663.00;;;;8284829;28;20202;-77
2023/12/14 07:15:12;;;;;;;57.73;13.83;;;;;7.20;95675.00;;;;8272192;28;20233;-77
2023/12/14 07:19:16;;;;;;;55.17;13.67;;;;;7.20;95690.00;;;;8272386;28;20286;-77
2023/12/14 07:23:20;;;;;;;49.13;12.17;;;;;7.20;95685.00;;;;8272508;28;20202;-77
2023/12/14 07:27:23;;;;;;;54.03;13.00;;;;;7.20;95683.00;;;;8276991;28;20203;-76
2023/12/14 07:31:27;;;;;;;49.47;12.63;;;;;7.10;95688.00;;;;8274439;28;21020;-76
2023/12/14 07:35:32;;;;;;;43.13;11.67;;;;;7.00;95691.00;;;;8283981;28;20292;-76
2023/12/14 07:39:35;;;;;;;51.57;12.30;;;;;6.90;95699.00;;;;8292170;28;20293;-77
2023/12/14 07:43:40;;;;;;;43.40;11.67;;;;;6.90;95703.00;;;;8277499;28;20209;-76
2023/12/14 07:47:46;;;;;;;45.87;11.80;;;;;6.90;95705.00;;;;8281085;28;20245;-76
2023/12/14 07:51:51;;;;;;;49.00;13.10;;;;;6.90;95718.00;;;;8280001;28;20203;-75
2023/12/14 07:55:55;;;;;;;46.20;12.43;;;;;7.00;95709.00;;;;8281356;28;20233;-76
2023/12/14 07:59:59;;;;;;;55.23;12.13;;;;;7.00;95721.00;;;;8279166;28;20353;-75
2023/12/14 08:04:03;;;;;;;61.87;13.47;;;;;7.10;95734.00;;;;8275204;28;20253;-75
2023/12/14 08:08:08;;;;;;;56.47;12.47;;;;;7.10;95723.00;;;;8276698;28;20199;-75
2023/12/14 08:12:11;;;;;;;54.70;13.53;;;;;7.10;95736.00;;;;8276087;28;20889;-75
2023/12/14 08:16:17;;;;;;;54.00;12.90;;;;;7.10;95744.00;;;;8275423;28;20228;-75
2023/12/14 08:20:20;;;;;;;58.10;12.85;;;;;7.10;95752.00;;;;8276385;28;20704;-76
2023/12/14 08:24:24;;;;;;;52.97;12.60;;;;;7.20;95762.00;;;;8276053;28;20199;-75
2023/12/14 08:28:28;;;;;;;45.83;11.17;;;;;7.20;95773.00;;;;8275594;28;20198;-75
2023/12/14 08:32:31;;;;;;;44.70;10.97;;;;;7.20;95782.00;;;;8271637;28;20563;-77
2023/12/14 08:36:35;;;;;;;48.13;11.77;;;;;7.20;95798.00;;;;8284238;28;20325;-76
2023/12/14 08:40:40;;;;;;;49.97;12.97;;;;;7.30;95791.00;;;;8278627;28;20218;-76
2023/12/14 08:44:43;;;;;;;54.93;12.57;;;;;7.40;95807.00;;;;8252567;28;20311;-75
2023/12/14 08:48:47;;;;;;;50.70;12.07;;;;;7.50;95803.00;;;;8261371;28;20211;-75
2023/12/14 08:52:50;;;;;;;54.63;13.33;;;;;7.50;95826.00;;;;8261186;28;20236;-75
2023/12/14 08:56:56;;;;;;;49.17;12.20;;;;;7.50;95828.00;;;;8260735;28;20321;-75
2023/12/14 09:00:59;;;;;;;53.37;12.37;;;;;7.60;95833.00;;;;8268843;28;20293;-76
2023/12/14 09:05:04;;;;;;;46.35;12.30;;;;;7.70;95829.00;;;;8269330;28;20353;-75
2023/12/14 09:09:08;;;;;;;45.07;12.17;;;;;7.70;95834.00;;;;8273429;28;20240;-75
2023/12/14 09:13:12;;;;;;;46.40;11.87;;;;;7.80;95838.00;;;;8273916;28;20297;-75
2023/12/14 09:17:16;;;;;;;55.28;13.05;;;;;7.90;95852.00;;;;8269302;28;20693;-74
2023/12/14 09:21:20;;;;;;;54.13;13.15;;;;;8.00;95866.00;;;;8301214;28;20599;-74
2023/12/14 09:25:29;;;;;;;52.37;13.60;;;;;8.10;95878.00;;;;8300430;28;20505;-75
2023/12/14 09:29:34;;;;;;;49.85;13.32;;;;;8.10;95879.00;;;;8300610;28;20246;-74
2023/12/14 09:33:37;;;;;;;53.93;14.40;;;;;8.10;95876.00;;;;8300265;28;20209;-74
2023/12/14 09:37:41;;;;;;;50.97;12.23;;;;;8.20;95888.00;;;;8300136;28;20194;-74
2023/12/14 09:41:45;;;;;;;52.57;13.37;;;;;8.20;95894.00;;;;8300436;28;20198;-74
2023/12/14 09:45:51;;;;;;;37.57;11.00;;;;;8.20;95890.00;;;;8299982;28;20202;-74
2023/12/14 09:49:54;;;;;;;48.05;13.45;;;;;8.10;95900.00;;;;8300939;28;20213;-74
2023/12/14 09:53:58;;;;;;;39.67;12.07;;;;;8.10;95910.00;;;;8299493;28;20210;-74
2023/12/14 09:58:02;;;;;;;44.80;13.10;;;;;8.20;95916.00;;;;8298863;28;20206;-74
2023/12/14 10:02:16;;;;;;;51.35;12.50;;;;;8.30;95910.00;;;;8299512;28;20321;-74
2023/12/14 10:06:19;;;;;;;43.83;12.60;;;;;8.40;95917.00;;;;8299156;28;20265;-74
2023/12/14 10:10:23;;;;;;;41.72;11.82;;;;;8.30;95913.00;;;;8299629;28;20197;-74
2023/12/14 10:14:27;;;;;;;44.75;12.18;;;;;8.40;95917.00;;;;8299117;28;20210;-74
2023/12/14 10:18:34;;;;;;;40.13;12.10;;;;;8.50;95928.00;;;;8300723;28;20228;-74
2023/12/14 10:22:37;;;;;;;42.83;11.73;;;;;8.70;95938.00;;;;8299560;28;20186;-74
2023/12/14 10:26:41;;;;;;;45.10;13.68;;;;;8.80;95928.00;;;;8298967;28;20189;-74
2023/12/14 10:30:44;;;;;;;33.83;10.88;;;;;8.90;95932.00;;;;8298358;28;20201;-73
2023/12/14 10:34:49;;;;;;;29.50;10.70;;;;;8.80;95935.00;;;;8300201;28;20222;-73
2023/12/14 10:38:54;;;;;;;35.25;11.23;;;;;8.80;95934.00;;;;8299423;28;20202;-73
2023/12/14 10:43:00;;;;;;;25.20;10.07;;;;;8.90;95930.00;;;;8299182;28;20210;-73
2023/12/14 10:47:07;;;;;;;32.55;10.45;;;;;8.90;95957.00;;;;8298502;28;20190;-74
2023/12/14 10:51:13;;;;;;;28.77;10.55;;;;;9.00;95957.00;;;;8299439;28;20213;-74
2023/12/14 10:55:22;;;;;;;32.83;10.75;;;;;9.10;95946.00;;;;8299118;28;20202;-74
2023/12/14 10:59:26;;;;;;;29.33;10.18;;;;;9.10;95938.00;;;;8298686;28;20641;-74
2023/12/14 11:03:34;;;;;;;27.17;9.73;;;;;9.10;95951.00;;;;8298770;28;20317;-74
2023/12/14 11:07:52;;;;;;;27.77;9.43;;;;;9.20;95964.00;;;;8298109;28;20190;-74
2023/12/14 11:11:59;;;;;;;23.83;8.88;;;;;9.30;95966.00;;;;8299555;28;20663;-74
2023/12/14 11:16:03;;;;;;;18.98;7.82;;;;;9.40;95967.00;;;;8299825;28;20264;-73
2023/12/14 11:20:25;;;;;;;14.80;6.68;;;;;9.50;95979.00;;;;8303856;28;20202;-73
2023/12/14 11:24:29;;;;;;;17.08;7.95;;;;;9.30;95984.00;;;;8304010;28;20182;-73
2023/12/14 11:28:34;;;;;;;22.13;7.85;;;;;9.20;95996.00;;;;8305225;28;20202;-73
2023/12/14 11:32:38;;;;;;;18.83;8.13;;;;;9.20;95993.00;;;;8304886;28;20202;-73
2023/12/14 11:36:41;;;;;;;23.48;9.35;;;;;9.20;96004.00;;;;8303794;28;20671;-73
2023/12/14 11:40:46;;;;;;;17.45;8.13;;;;;9.20;96001.00;;;;8303217;28;20202;-73
2023/12/14 11:44:49;;;;;;;18.52;8.82;;;;;9.00;96003.00;;;;8303081;28;20198;-73
2023/12/14 11:48:52;;;;;;;19.33;8.30;;;;;9.00;96012.00;;;;8302983;28;20276;-73
2023/12/14 11:52:57;;;;;;;15.25;7.55;;;;;9.00;96008.00;;;;8303856;28;20232;-73
2023/12/14 11:57:02;;;;;;;19.77;8.40;;;;;8.90;96010.00;;;;8302821;28;20229;-73
2023/12/14 12:01:13;;;;;;;19.05;8.20;;;;;8.80;96023.00;;;;8302967;28;20202;-73
2023/12/14 12:05:18;;;;;;;18.38;8.57;;;;;8.80;96010.00;;;;8303521;28;20194;-73
2023/12/14 12:09:38;;;;;;;20.13;8.40;;;;;8.90;96015.00;;;;8303029;28;20178;-73
2023/12/14 12:13:43;;;;;;;18.27;8.73;;;;;8.80;96020.00;;;;8303263;28;20516;-73
2023/12/14 12:17:46;;;;;;;14.17;7.87;;;;;9.00;96015.00;;;;8302095;28;20260;-73
2023/12/14 12:21:50;;;;;;;16.92;8.48;;;;;9.00;96025.00;;;;8302770;28;20206;-73
2023/12/14 12:25:55;;;;;;;21.35;9.23;;;;;9.00;96030.00;;;;8303030;28;20284;-72
2023/12/14 12:29:59;;;;;;;20.13;8.98;;;;;8.90;96032.00;;;;8302242;28;20280;-72
2023/12/14 12:34:03;;;;;;;15.15;7.85;;;;;8.90;96031.00;;;;8302766;28;20535;-74
2023/12/14 12:38:06;;;;;;;12.57;7.13;;;;;8.90;96034.00;;;;8301029;28;20221;-72
2023/12/14 12:42:09;;;;;;;14.50;7.95;;;;;9.00;96034.00;;;;8302599;28;20630;-72
2023/12/14 12:46:14;;;;;;;12.55;7.43;;;;;9.20;96045.00;;;;8301423;28;20203;-73
2023/12/14 12:50:17;;;;;;;14.40;6.65;;;;;9.20;96048.00;;;;8301440;28;20194;-72
2023/12/14 12:54:21;;;;;;;12.73;6.45;;;;;9.10;96040.00;;;;8301359;28;20571;-72
2023/12/14 12:58:24;;;;;;;12.05;6.47;;;;;9.10;96057.00;;;;8301604;28;20225;-73
2023/12/14 13:02:28;;;;;;;14.27;6.90;;;;;9.10;96057.00;;;;8301279;28;20221;-73
2023/12/14 13:06:32;;;;;;;11.45;6.00;;;;;9.10;96067.00;;;;8301842;28;20551;-73
2023/12/14 13:10:37;;;;;;;11.23;6.72;;;;;9.10;96070.00;;;;8300918;28;20210;-73
2023/12/14 13:14:41;;;;;;;9.63;6.40;;;;;9.10;96068.00;;;;8301869;28;20276;-73
2023/12/14 13:18:46;;;;;;;11.63;6.75;;;;;9.10;96078.00;;;;8300077;28;20229;-73
2023/12/14 13:22:50;;;;;;;10.15;5.05;;;;;9.20;96084.00;;;;8299950;28;20277;-73
2023/12/14 13:26:53;;;;;;;8.85;5.30;;;;;9.20;96075.00;;;;8299378;28;20301;-73
2023/12/14 13:30:56;;;;;;;7.82;5.18;;;;;9.10;96086.00;;;;8300518;28;20630;-73
2023/12/14 13:35:01;;;;;;;53.25;22.13;;;;;9.10;96102.00;;;;8300424;28;20227;-73
2023/12/14 13:39:06;;;;;;;13.82;6.53;;;;;9.00;96092.00;;;;8300097;28;20191;-73
2023/12/14 13:43:11;;;;;;;93.68;36.55;;;;;9.00;96106.00;;;;8300885;28;20209;-73
2023/12/14 13:47:14;;;;;;;11.85;6.10;;;;;9.00;96104.00;;;;8299748;28;20194;-73
2023/12/14 13:51:19;;;;;;;14.95;6.68;;;;;8.90;96111.00;;;;8300822;28;20257;-73
2023/12/14 13:55:22;;;;;;;10.77;6.40;;;;;8.80;96122.00;;;;8300125;28;20596;-73
2023/12/14 13:59:25;;;;;;;11.77;5.78;;;;;8.80;96129.00;;;;8299039;28;20237;-73
2023/12/14 14:03:29;;;;;;;9.20;5.60;;;;;8.70;96130.00;;;;8299711;28;20226;-73
2023/12/14 14:07:33;;;;;;;11.32;5.93;;;;;8.60;96138.00;;;;8299373;28;20190;-73
2023/12/14 14:11:37;;;;;;;10.35;5.32;;;;;8.60;96145.00;;;;8299679;28;20505;-73
2023/12/14 14:15:40;;;;;;;10.00;5.68;;;;;8.50;96157.00;;;;8298549;28;20225;-73
2023/12/14 14:19:44;;;;;;;12.52;5.90;;;;;8.50;96171.00;;;;8298996;28;20213;-73
2023/12/14 14:23:48;;;;;;;14.13;6.50;;;;;8.50;96178.00;;;;8298884;28;20222;-74
2023/12/14 14:27:52;;;;;;;11.57;6.18;;;;;8.40;96186.00;;;;8299672;28;20650;-74
2023/12/14 14:31:55;;;;;;;14.70;7.15;;;;;8.40;96185.00;;;;8298967;28;20738;-73
2023/12/14 14:35:58;;;;;;;12.88;7.05;;;;;8.30;96191.00;;;;8299516;28;20300;-73
2023/12/14 14:40:04;;;;;;;16.35;7.50;;;;;8.30;96190.00;;;;8300156;28;20600;-73
2023/12/14 14:44:08;;;;;;;10.65;6.47;;;;;8.30;96209.00;;;;8298892;28;20182;-73
2023/12/14 14:48:11;;;;;;;17.20;7.00;;;;;8.30;96209.00;;;;8299006;28;20205;-73
2023/12/14 14:52:16;;;;;;;18.08;6.85;;;;;8.30;96214.00;;;;8300838;28;20236;-73
2023/12/14 14:56:20;;;;;;;13.70;6.28;;;;;8.20;96222.00;;;;8305971;28;20578;-74
2023/12/14 15:00:25;;;;;;;15.57;7.23;;;;;8.20;96234.00;;;;8305481;28;20264;-74
2023/12/14 15:04:29;;;;;;;14.85;7.32;;;;;8.20;96240.00;;;;8306183;28;20236;-74
2023/12/14 15:08:32;;;;;;;16.05;7.38;;;;;8.10;96251.00;;;;8306212;28;20497;-74
2023/12/14 15:12:37;;;;;;;23.02;7.63;;;;;8.10;96250.00;;;;8303853;28;20193;-74
2023/12/14 15:16:40;;;;;;;21.38;7.43;;;;;8.10;96252.00;;;;8304684;28;20602;-73
2023/12/14 15:20:44;;;;;;;15.18;7.72;;;;;8.20;96262.00;;;;8305889;28;20194;-73
2023/12/14 15:24:48;;;;;;;16.23;7.50;;;;;8.20;96261.00;;;;8305008;28;20217;-73
2023/12/14 15:28:53;;;;;;;16.30;7.70;;;;;8.30;96273.00;;;;8300229;28;20795;-73
2023/12/14 15:32:56;;;;;;;17.35;7.20;;;;;8.40;96283.00;;;;8302829;28;20291;-74
2023/12/14 15:37:05;;;;;;;18.42;7.93;;;;;8.40;96286.00;;;;8302184;28;20611;-77
2023/12/14 15:41:08;;;;;;;13.95;6.95;;;;;8.40;96290.00;;;;8303766;28;20218;-75
2023/12/14 15:45:12;;;;;;;13.67;6.53;;;;;8.40;96288.00;;;;8278749;28;20632;-74
2023/12/14 15:49:16;;;;;;;14.32;7.07;;;;;8.40;96300.00;;;;8270728;28;20629;-77
2023/12/14 15:53:19;;;;;;;17.25;7.38;;;;;8.30;96315.00;;;;8270670;28;20293;-78
2023/12/14 15:57:23;;;;;;;21.60;9.30;;;;;8.10;96322.00;;;;8271134;28;20219;-75
2023/12/14 16:01:27;;;;;;;14.80;8.00;;;;;8.00;96331.00;;;;8270272;28;20223;-74
2023/12/14 16:05:33;;;;;;;8.95;5.50;;;;;7.80;96332.00;;;;8269456;28;20241;-74
2023/12/14 16:09:37;;;;;;;9.88;5.38;;;;;7.60;96351.00;;;;8270131;28;20653;-75
2023/12/14 16:13:41;;;;;;;18.83;12.65;;;;;7.50;96354.00;;;;8270577;28;20201;-72
2023/12/14 16:17:47;;;;;;;11.10;7.18;;;;;7.30;96371.00;;;;8269705;28;20314;-70
2023/12/14 16:21:50;;;;;;;10.50;7.30;;;;;7.20;96369.00;;;;8269762;28;20199;-69
2023/12/14 16:25:57;;;;;;;3.17;2.80;;;;;7.10;96376.00;;;;8268139;28;20191;-69
2023/12/14 16:30:00;;;;;;;2.47;1.97;;;;;7.00;96368.00;;;;8267799;28;20183;-69
2023/12/14 16:34:05;;;;;;;3.40;1.97;;;;;6.80;96374.00;;;;8268942;28;20592;-68
2023/12/14 16:38:08;;;;;;;4.23;2.50;;;;;6.80;96385.00;;;;8268567;28;20235;-69
2023/12/14 16:42:12;;;;;;;2.27;2.07;;;;;6.70;96392.00;;;;8268776;28;20205;-71
2023/12/14 16:46:17;;;;;;;19.50;14.43;;;;;6.70;96391.00;;;;8267765;28;20285;-72
2023/12/14 16:50:22;;;;;;;3.30;2.70;;;;;6.70;96402.00;;;;8269421;28;20223;-72
2023/12/14 16:54:28;;;;;;;14.43;12.77;;;;;6.70;96398.00;;;;8269078;28;20550;-71
2023/12/14 16:58:34;;;;;;;37.30;33.37;;;;;6.70;96408.00;;;;8268483;28;20262;-72
2023/12/14 17:02:38;;;;;;;10.63;4.40;;;;;6.70;96411.00;;;;8269603;28;20611;-72
2023/12/14 17:06:43;;;;;;;6.38;4.68;;;;;6.80;96421.00;;;;8268757;28;20294;-72
2023/12/14 17:10:46;;;;;;;12.67;5.97;;;;;6.80;96423.00;;;;8268496;28;20195;-72
2023/12/14 17:14:49;;;;;;;22.37;12.90;;;;;6.80;96420.00;;;;8267443;28;20191;-72
2023/12/14 17:18:52;;;;;;;9.47;5.87;;;;;6.90;96429.00;;;;8269217;28;20305;-72
2023/12/14 17:22:57;;;;;;;11.73;5.77;;;;;6.90;96436.00;;;;8268681;28;20198;-73
2023/12/14 17:27:01;;;;;;;13.50;7.35;;;;;6.90;96441.00;;;;8267790;28;20191;-73
2023/12/14 17:31:05;;;;;;;7.60;5.07;;;;;6.90;96440.00;;;;8268388;28;20286;-73
2023/12/14 17:35:08;;;;;;;50.57;39.93;;;;;6.90;96450.00;;;;8267527;28;20209;-72
2023/12/14 17:39:13;;;;;;;61.13;45.43;;;;;6.90;96455.00;;;;8267944;28;20664;-73
2023/12/14 17:43:16;;;;;;;24.23;17.30;;;;;6.90;96458.00;;;;8267049;28;20282;-72
2023/12/14 17:47:19;;;;;;;24.03;16.73;;;;;6.90;96462.00;;;;8268303;28;20234;-73
2023/12/14 17:51:23;;;;;;;12.93;7.10;;;;;6.90;96476.00;;;;8267086;28;20325;-73
2023/12/14 17:55:27;;;;;;;13.70;7.00;;;;;7.00;96470.00;;;;8268001;28;20536;-73
2023/12/14 17:59:30;;;;;;;14.10;7.80;;;;;7.00;96480.00;;;;8267468;28;20280;-73
2023/12/14 18:03:33;;;;;;;15.33;8.07;;;;;6.90;96489.00;;;;8268134;28;20240;-73
2023/12/14 18:07:37;;;;;;;16.47;7.63;;;;;7.00;96492.00;;;;8267204;28;20584;-73
2023/12/14 18:11:42;;;;;;;14.73;7.85;;;;;6.90;96493.00;;;;8266862;28;20698;-73
2023/12/14 18:15:45;;;;;;;13.27;8.33;;;;;6.90;96496.00;;;;8267608;28;20194;-73
2023/12/14 18:19:48;;;;;;;16.88;8.57;;;;;6.90;96512.00;;;;8266480;28;20293;-74
2023/12/14 18:23:52;;;;;;;17.03;10.07;;;;;6.90;96518.00;;;;8266269;28;20226;-74
2023/12/14 18:28:01;;;;;;;13.33;8.00;;;;;6.90;96526.00;;;;8265472;28;20198;-74
2023/12/14 18:32:05;;;;;;;17.47;9.03;;;;;7.00;96534.00;;;;8267343;28;20517;-74
2023/12/14 18:36:09;;;;;;;18.17;9.70;;;;;7.00;96541.00;;;;8265443;28;20286;-74
2023/12/14 18:40:12;;;;;;;18.23;9.50;;;;;7.00;96552.00;;;;8266556;28;20620;-74
2023/12/14 18:44:19;;;;;;;17.07;8.87;;;;;7.10;96554.00;;;;8263882;28;20234;-74
2023/12/14 18:48:22;;;;;;;16.83;9.07;;;;;7.10;96562.00;;;;8266652;28;20548;-75
2023/12/14 18:52:25;;;;;;;15.97;9.17;;;;;7.00;96574.00;;;;8265365;28;20206;-74
2023/12/14 18:56:31;;;;;;;14.30;8.27;;;;;7.00;96573.00;;;;8265695;28;20636;-76
2023/12/14 19:00:36;;;;;;;14.17;8.50;;;;;7.00;96579.00;;;;8266220;28;20211;-77
2023/12/14 19:04:41;;;;;;;13.17;7.70;;;;;7.00;96593.00;;;;8266821;28;20636;-78
2023/12/14 19:08:44;;;;;;;13.17;7.00;;;;;7.00;96591.00;;;;8265159;28;20183;-78
2023/12/14 19:12:48;;;;;;;14.93;7.77;;;;;7.00;96604.00;;;;8265318;28;20202;-78
2023/12/14 19:16:52;;;;;;;9.67;6.53;;;;;7.00;96594.00;;;;8266018;28;20293;-78
2023/12/14 19:20:56;;;;;;;10.63;6.57;;;;;7.00;96600.00;;;;8265983;28;20318;-78
2023/12/14 19:25:02;;;;;;;8.77;6.30;;;;;7.00;96609.00;;;;8266019;28;20199;-78
2023/12/14 19:29:06;;;;;;;10.03;6.33;;;;;6.90;96621.00;;;;8265450;28;20238;-78
2023/12/14 19:33:10;;;;;;;11.40;6.67;;;;;7.00;96630.00;;;;8265280;28;20623;-79
2023/12/14 19:37:13;;;;;;;7.10;4.73;;;;;7.00;96633.00;;;;8265740;28;20595;-80
2023/12/14 19:41:17;;;;;;;7.50;5.70;;;;;6.90;96642.00;;;;8271090;28;20237;-78
2023/12/14 19:45:20;;;;;;;6.20;4.90;;;;;6.90;96659.00;;;;8271901;28;20302;-79
2023/12/14 19:49:24;;;;;;;7.00;4.77;;;;;6.90;96658.00;;;;8271393;28;20253;-79
2023/12/14 19:53:28;;;;;;;7.60;5.00;;;;;6.80;96669.00;;;;8270516;28;20183;-79
2023/12/14 19:57:31;;;;;;;5.23;4.43;;;;;6.80;96680.00;;;;8271159;28;20194;-80
2023/12/14 20:01:34;;;;;;;4.37;3.73;;;;;6.80;96675.00;;;;8270423;28;20230;-79
2023/12/14 20:05:40;;;;;;;6.07;4.40;;;;;6.80;96692.00;;;;8271020;28;20211;-79
2023/12/14 20:09:43;;;;;;;4.10;3.70;;;;;6.70;96695.00;;;;8270102;28;20186;-79
2023/12/14 20:13:59;;;;;;;3.60;3.30;;;;;6.60;96708.00;;;;8270453;28;20210;-79
2023/12/14 20:18:03;;;;;;;4.10;3.27;;;;;6.50;96717.00;;;;8271545;28;20257;-78
2023/12/14 20:22:07;;;;;;;3.67;3.30;;;;;6.40;96705.00;;;;8270034;28;20194;-78